Time,TemperatureF,DewpointF,PressureIn,WindDirection,WindDirectionDegrees,WindSpeedMPH,WindSpeedGustMPH,Humidity,HourlyPrecipIn,Conditions,Clouds,dailyrainin,SoftwareType,DateUTC
2013-02-12 00:11:00,56.9,56.0,29.89,WSW,253,0.0,-999.0,97,-99.99,,,0.14,weatherlink.com 1.10,2013-02-12 05:11:00,
2013-02-12 00:29:00,57.2,57.0,29.89,West,271,0.0,-999.0,98,-99.99,,,0.14,weatherlink.com 1.10,2013-02-12 05:29:00,
2013-02-12 00:41:00,57.2,56.0,29.89,West,272,0.0,-999.0,97,-99.99,,,0.14,weatherlink.com 1.10,2013-02-12 05:41:00,
2013-02-12 00:56:00,56.5,56.0,29.89,WNW,291,0.0,-999.0,97,-99.99,,,0.14,weatherlink.com 1.10,2013-02-12 05:56:00,
2013-02-12 01:11:00,56.7,56.0,29.89,WNW,285,7.0,-999.0,97,-99.99,,,0.14,weatherlink.com 1.10,2013-02-12 06:11:00,
2013-02-12 01:26:00,56.9,56.0,29.88,WSW,257,0.0,-999.0,97,-99.99,,,0.14,weatherlink.com 1.10,2013-02-12 06:26:00,
2013-02-12 01:41:00,57.0,56.0,29.88,West,260,4.0,-999.0,97,-99.99,,,0.00,weatherlink.com 1.10,2013-02-12 06:41:00,
2013-02-12 01:56:00,56.9,56.0,29.88,WNW,301,0.0,-999.0,97,-99.99,,,0.00,weatherlink.com 1.10,2013-02-12 06:56:00,
2013-02-12 02:11:00,57.5,56.0,29.88,NW,326,0.0,-999.0,96,-99.99,,,0.00,weatherlink.com 1.10,2013-02-12 07:11:00,
2013-02-12 02:26:00,57.0,56.0,29.89,West,274,6.0,-999.0,96,-99.99,,,0.00,weatherlink.com 1.10,2013-02-12 07:26:00,
2013-02-12 02:41:00,56.5,55.0,29.90,WNW,295,0.0,-999.0,96,-99.99,,,0.00,weatherlink.com 1.10,2013-02-12 07:41:00,
2013-02-12 02:56:00,56.9,56.0,29.90,WNW,294,6.0,-999.0,96,-99.99,,,0.00,weatherlink.com 1.10,2013-02-12 07:56:00,
2013-02-12 03:11:00,57.2,56.0,29.90,West,274,2.0,-999.0,96,-99.99,,,0.00,weatherlink.com 1.10,2013-02-12 08:11:00,
2013-02-12 03:26:00,57.2,56.0,29.90,WNW,285,2.0,-999.0,95,-99.99,,,0.00,weatherlink.com 1.10,2013-02-12 08:26:00,
2013-02-12 03:41:00,57.0,56.0,29.90,WNW,287,0.0,-999.0,96,-99.99,,,0.00,weatherlink.com 1.10,2013-02-12 08:41:00,
2013-02-12 03:56:00,56.7,55.0,29.89,WNW,292,0.0,-999.0,95,-99.99,,,0.00,weatherlink.com 1.10,2013-02-12 08:56:00,
2013-02-12 04:11:00,56.7,56.0,29.90,West,271,0.0,-999.0,96,-99.99,,,0.00,weatherlink.com 1.10,2013-02-12 09:11:00,
2013-02-12 04:26:00,56.6,56.0,29.90,NW,305,0.0,-999.0,96,-99.99,,,0.00,weatherlink.com 1.10,2013-02-12 09:26:00,
2013-02-12 04:41:00,56.2,55.0,29.90,NW,309,0.0,-999.0,96,-99.99,,,0.00,weatherlink.com 1.10,2013-02-12 09:41:00,
2013-02-12 04:56:00,56.2,55.0,29.90,WNW,295,0.0,-999.0,96,-99.99,,,0.00,weatherlink.com 1.10,2013-02-12 09:56:00,
2013-02-12 05:11:00,56.0,55.0,29.91,WNW,296,0.0,-999.0,96,-99.99,,,0.00,weatherlink.com 1.10,2013-02-12 10:11:00,
2013-02-12 05:26:00,55.9,55.0,29.90,NW,305,0.0,-999.0,96,-99.99,,,0.00,weatherlink.com 1.10,2013-02-12 10:26:00,
2013-02-12 05:41:00,55.4,54.0,29.90,NW,305,0.0,-999.0,96,-99.99,,,0.00,weatherlink.com 1.10,2013-02-12 10:41:00,
2013-02-12 05:56:00,55.0,54.0,29.91,NW,305,0.0,-999.0,96,-99.99,,,0.00,weatherlink.com 1.10,2013-02-12 10:56:00,
2013-02-12 06:14:00,54.8,54.0,29.91,WNW,285,0.0,-999.0,96,-99.99,,,0.00,weatherlink.com 1.10,2013-02-12 11:14:00,
2013-02-12 06:26:00,55.1,54.0,29.92,WNW,298,0.0,-999.0,96,-99.99,,,0.00,weatherlink.com 1.10,2013-02-12 11:26:00,
2013-02-12 06:41:00,55.7,54.0,29.93,NW,309,0.0,-999.0,95,-99.99,,,0.00,weatherlink.com 1.10,2013-02-12 11:41:00,
2013-02-12 06:56:00,56.0,54.0,29.94,NW,304,0.0,-999.0,92,-99.99,,,0.00,weatherlink.com 1.10,2013-02-12 11:56:00,
2013-02-12 07:11:00,55.6,53.0,29.94,WNW,298,0.0,-999.0,92,-99.99,,,0.00,weatherlink.com 1.10,2013-02-12 12:11:00,
2013-02-12 07:26:00,55.4,53.0,29.95,NW,311,0.0,-999.0,92,-99.99,,,0.00,weatherlink.com 1.10,2013-02-12 12:26:00,
2013-02-12 07:41:00,55.4,53.0,29.95,WNW,287,0.0,-999.0,92,-99.99,,,0.00,weatherlink.com 1.10,2013-02-12 12:41:00,
2013-02-12 07:56:00,56.0,54.0,29.97,WNW,288,0.0,-999.0,92,-99.99,,,0.00,weatherlink.com 1.10,2013-02-12 12:56:00,
2013-02-12 08:11:00,56.3,54.0,29.97,NW,316,0.0,-999.0,91,-99.99,,,0.00,weatherlink.com 1.10,2013-02-12 13:11:00,
2013-02-12 08:26:00,56.6,54.0,29.97,NW,311,0.0,-999.0,90,-99.99,,,0.00,weatherlink.com 1.10,2013-02-12 13:26:00,
2013-02-12 08:41:00,56.7,54.0,29.97,NW,305,0.0,-999.0,89,-99.99,,,0.00,weatherlink.com 1.10,2013-02-12 13:41:00,
2013-02-12 08:56:00,56.7,53.0,29.98,NW,316,1.0,-999.0,86,-99.99,,,0.00,weatherlink.com 1.10,2013-02-12 13:56:00,
2013-02-12 09:11:00,57.3,53.0,29.98,NNW,337,7.0,-999.0,84,-99.99,,,0.00,weatherlink.com 1.10,2013-02-12 14:11:00,
2013-02-12 09:26:00,57.2,50.0,29.98,North,353,0.0,-999.0,77,-99.99,,,0.00,weatherlink.com 1.10,2013-02-12 14:26:00,
2013-02-12 09:41:00,57.5,48.0,29.97,North,353,9.0,-999.0,70,-99.99,,,0.00,weatherlink.com 1.10,2013-02-12 14:41:00,
2013-02-12 09:56:00,57.6,47.0,29.98,North,1,2.0,-999.0,67,-99.99,,,0.00,weatherlink.com 1.10,2013-02-12 14:56:00,
2013-02-12 10:11:00,57.5,47.0,29.98,North,0,0.0,-999.0,69,-99.99,,,0.00,weatherlink.com 1.10,2013-02-12 15:11:00,
2013-02-12 10:26:00,57.8,47.0,29.98,NNW,337,2.0,-999.0,67,-99.99,,,0.00,weatherlink.com 1.10,2013-02-12 15:26:00,
2013-02-12 10:41:00,57.8,46.0,30.00,NNW,346,0.0,-999.0,66,-99.99,,,0.00,weatherlink.com 1.10,2013-02-12 15:41:00,
2013-02-12 10:56:00,57.6,46.0,30.00,North,357,0.0,-999.0,65,-99.99,,,0.00,weatherlink.com 1.10,2013-02-12 15:56:00,
2013-02-12 11:11:00,58.1,44.0,29.99,NNW,347,0.0,-999.0,60,-99.99,,,0.00,weatherlink.com 1.10,2013-02-12 16:11:00,
2013-02-12 11:27:00,58.4,43.0,29.98,North,0,0.0,-999.0,57,-99.99,,,0.00,weatherlink.com 1.10,2013-02-12 16:27:00,
2013-02-12 11:41:00,58.4,43.0,30.00,NW,313,2.0,-999.0,58,-99.99,,,0.00,weatherlink.com 1.10,2013-02-12 16:41:00,
2013-02-12 11:56:00,58.3,45.0,30.00,NNW,336,1.0,-999.0,61,-99.99,,,0.00,weatherlink.com 1.10,2013-02-12 16:56:00,
2013-02-12 12:11:00,57.8,46.0,30.00,NW,326,0.0,-999.0,64,-99.99,,,0.00,weatherlink.com 1.10,2013-02-12 17:11:00,
2013-02-12 12:26:00,58.3,41.0,29.99,NW,315,0.0,-999.0,52,-99.99,,,0.00,weatherlink.com 1.10,2013-02-12 17:26:00,
2013-02-12 12:41:00,58.3,39.0,29.98,NW,304,0.0,-999.0,49,-99.99,,,0.00,weatherlink.com 1.10,2013-02-12 17:41:00,
2013-02-12 12:56:00,59.6,40.0,29.98,WSW,253,0.0,-999.0,49,-99.99,,,0.00,weatherlink.com 1.10,2013-02-12 17:56:00,
2013-02-12 13:11:00,59.3,44.0,29.96,SW,230,0.0,-999.0,58,-99.99,,,0.00,weatherlink.com 1.10,2013-02-12 18:11:00,
2013-02-12 13:26:00,59.6,45.0,29.94,West,263,0.0,-999.0,59,-99.99,,,0.00,weatherlink.com 1.10,2013-02-12 18:26:00,
2013-02-12 13:41:00,59.3,43.0,29.93,SW,236,0.0,-999.0,56,-99.99,,,0.00,weatherlink.com 1.10,2013-02-12 18:41:00,
2013-02-12 13:56:00,60.7,42.0,29.95,West,270,0.0,-999.0,50,-99.99,,,0.00,weatherlink.com 1.10,2013-02-12 18:56:00,
2013-02-12 14:11:00,60.5,41.0,29.96,West,265,0.0,-999.0,49,-99.99,,,0.00,weatherlink.com 1.10,2013-02-12 19:11:00,
2013-02-12 14:26:00,59.8,44.0,29.93,SW,233,0.0,-999.0,56,-99.99,,,0.00,weatherlink.com 1.10,2013-02-12 19:26:00,
2013-02-12 14:42:00,60.4,45.0,29.91,WSW,247,0.0,-999.0,58,-99.99,,,0.00,weatherlink.com 1.10,2013-02-12 19:42:00,
2013-02-12 14:56:00,59.9,45.0,29.91,WSW,248,0.0,-999.0,58,-99.99,,,0.00,weatherlink.com 1.10,2013-02-12 19:56:00,
2013-02-12 15:11:00,59.9,46.0,29.89,SW,224,0.0,-999.0,61,-99.99,,,0.00,weatherlink.com 1.10,2013-02-12 20:11:00,
2013-02-12 15:26:00,59.6,46.0,29.91,SSW,208,0.0,-999.0,61,-99.99,,,0.00,weatherlink.com 1.10,2013-02-12 20:26:00,
2013-02-12 15:41:00,59.0,47.0,29.91,WSW,248,0.0,-999.0,65,-99.99,,,0.00,weatherlink.com 1.10,2013-02-12 20:41:00,
2013-02-12 15:57:00,57.8,48.0,29.91,SW,216,6.0,-999.0,70,-99.99,,,0.00,weatherlink.com 1.10,2013-02-12 20:57:00,
2013-02-12 16:11:00,57.5,47.0,29.91,WSW,246,0.0,-999.0,69,-99.99,,,0.00,weatherlink.com 1.10,2013-02-12 21:11:00,
2013-02-12 16:26:00,57.2,48.0,29.92,WSW,258,0.0,-999.0,72,-99.99,,,0.00,weatherlink.com 1.10,2013-02-12 21:26:00,
2013-02-12 16:41:00,57.0,48.0,29.92,WSW,241,0.0,-999.0,72,-99.99,,,0.00,weatherlink.com 1.10,2013-02-12 21:41:00,
2013-02-12 16:56:00,56.7,48.0,29.91,West,271,0.0,-999.0,72,-99.99,,,0.00,weatherlink.com 1.10,2013-02-12 21:56:00,
2013-02-12 17:11:00,56.3,48.0,29.91,West,275,0.0,-999.0,75,-99.99,,,0.00,weatherlink.com 1.10,2013-02-12 22:11:00,
2013-02-12 17:26:00,56.0,49.0,29.91,West,271,0.0,-999.0,77,-99.99,,,0.00,weatherlink.com 1.10,2013-02-12 22:26:00,
2013-02-12 17:41:00,55.7,50.0,29.90,West,274,0.0,-999.0,80,-99.99,,,0.00,weatherlink.com 1.10,2013-02-12 22:41:00,
2013-02-12 17:56:00,55.4,50.0,29.90,WNW,284,0.0,-999.0,82,-99.99,,,0.00,weatherlink.com 1.10,2013-02-12 22:56:00,
2013-02-12 18:11:00,55.3,50.0,29.91,WNW,284,0.0,-999.0,83,-99.99,,,0.00,weatherlink.com 1.10,2013-02-12 23:11:00,
2013-02-12 18:27:00,55.1,50.0,29.92,WNW,299,0.0,-999.0,84,-99.99,,,0.00,weatherlink.com 1.10,2013-02-12 23:27:00,
2013-02-12 18:41:00,55.0,51.0,29.94,West,278,0.0,-999.0,85,-99.99,,,0.00,weatherlink.com 1.10,2013-02-12 23:41:00,
2013-02-12 18:56:00,55.0,51.0,29.94,NW,308,0.0,-999.0,85,-99.99,,,0.00,weatherlink.com 1.10,2013-02-12 23:56:00,
2013-02-12 19:11:00,55.0,51.0,29.94,NW,306,0.0,-999.0,87,-99.99,,,0.00,weatherlink.com 1.10,2013-02-13 00:11:00,
2013-02-12 19:26:00,54.5,50.0,29.92,NW,319,0.0,-999.0,85,-99.99,,,0.00,weatherlink.com 1.10,2013-02-13 00:26:00,
2013-02-12 19:42:00,54.7,51.0,29.92,NW,319,0.0,-999.0,86,-99.99,,,0.00,weatherlink.com 1.10,2013-02-13 00:42:00,
2013-02-12 19:56:00,54.5,50.0,29.91,NW,319,0.0,-999.0,86,-99.99,,,0.00,weatherlink.com 1.10,2013-02-13 00:56:00,
2013-02-12 20:12:00,54.5,51.0,29.92,NW,319,0.0,-999.0,87,-99.99,,,0.00,weatherlink.com 1.10,2013-02-13 01:12:00,
2013-02-12 20:26:00,54.5,51.0,29.91,NW,319,0.0,-999.0,88,-99.99,,,0.00,weatherlink.com 1.10,2013-02-13 01:26:00,
2013-02-12 20:41:00,54.4,51.0,29.92,NW,319,0.0,-999.0,87,-99.99,,,0.00,weatherlink.com 1.10,2013-02-13 01:41:00,
2013-02-12 20:56:00,54.4,51.0,29.91,NW,319,0.0,-999.0,87,-99.99,,,0.00,weatherlink.com 1.10,2013-02-13 01:56:00,
2013-02-12 21:11:00,54.1,51.0,29.89,NW,319,0.0,-999.0,88,-99.99,,,0.00,weatherlink.com 1.10,2013-02-13 02:11:00,
2013-02-12 21:26:00,54.1,51.0,29.89,NW,319,0.0,-999.0,89,-99.99,,,0.00,weatherlink.com 1.10,2013-02-13 02:26:00,
2013-02-12 21:41:00,54.2,51.0,29.89,NW,319,0.0,-999.0,90,-99.99,,,0.00,weatherlink.com 1.10,2013-02-13 02:41:00,
2013-02-12 21:56:00,54.2,52.0,29.91,NW,319,0.0,-999.0,91,-99.99,,,0.00,weatherlink.com 1.10,2013-02-13 02:56:00,
2013-02-12 22:11:00,54.1,52.0,29.89,NW,319,0.0,-999.0,91,-99.99,,,0.00,weatherlink.com 1.10,2013-02-13 03:11:00,
2013-02-12 22:26:00,54.2,52.0,29.90,NW,319,0.0,-999.0,92,-99.99,,,0.00,weatherlink.com 1.10,2013-02-13 03:26:00,
2013-02-12 22:41:00,54.2,52.0,29.91,NW,319,0.0,-999.0,92,-99.99,,,0.00,weatherlink.com 1.10,2013-02-13 03:41:00,
2013-02-12 22:56:00,53.9,52.0,29.91,NW,319,0.0,-999.0,93,-99.99,,,0.01,weatherlink.com 1.10,2013-02-13 03:56:00,
2013-02-12 23:11:00,53.8,52.0,29.91,NW,319,0.0,-999.0,94,-99.99,,,0.02,weatherlink.com 1.10,2013-02-13 04:11:00,
2013-02-12 23:26:00,53.3,52.0,29.92,NW,322,0.0,-999.0,94,-99.99,,,0.02,weatherlink.com 1.10,2013-02-13 04:26:00,
2013-02-12 23:41:00,53.1,52.0,29.94,NNW,337,0.0,-999.0,95,-99.99,,,0.03,weatherlink.com 1.10,2013-02-13 04:41:00,
2013-02-12 23:56:00,52.5,51.0,29.94,NNW,339,0.0,-999.0,95,-99.99,,,0.05,weatherlink.com 1.10,2013-02-13 04:56:00,